Coral Gbls, Florida
Current Conditions -  °F | °C
As of 7:53 AM on Thursday 18 Dec 2014 (Local Time) from KTMB Reporting Station
Clear Clear  
Wind Chill: 59°   Ceiling: Unl
Heat Index: 59°   Visibility: 10mi
Dew Point: 56°   Wind: 0mph
Humidity: 90%   Direction: NA
Pressure: 30.15"   Gusts: NA
Location:  25.6371°N, 80.3102°W
Report Text: KTMB 181253Z 00000KT 10SM CLR 15/13 A3015 RMK AO2 SLP209 T01500133
Loading
Personal Weather Stations






























Interactive Weather Map New forecast layout! Learn more

10-Day Weather Forecast

Advertisements
Track Severe Weather on mobile